sensor_id;sensor_type;location;lat;lon;timestamp;temperature;humidity
18950;DHT22;9608;49.288;8.130;2023-04-01T00:02:21;10.40;99.90
18950;DHT22;9608;49.288;8.130;2023-04-01T00:04:50;10.40;99.90
18950;DHT22;9608;49.288;8.130;2023-04-01T00:07:17;10.40;99.90
18950;DHT22;9608;49.288;8.130;2023-04-01T00:09:45;10.30;99.90
18950;DHT22;9608;49.288;8.130;2023-04-01T00:12:12;10.40;99.90
18950;DHT22;9608;49.288;8.130;2023-04-01T00:14:39;10.40;99.90
18950;DHT22;9608;49.288;8.130;2023-04-01T00:17:06;10.30;99.90
18950;DHT22;9608;49.288;8.130;2023-04-01T00:19:32;10.30;99.90
18950;DHT22;9608;49.288;8.130;2023-04-01T00:21:59;10.30;99.90
18950;DHT22;9608;49.288;8.130;2023-04-01T00:24:26;10.40;99.90
18950;DHT22;9608;49.288;8.130;2023-04-01T00:26:54;10.40;99.90
18950;DHT22;9608;49.288;8.130;2023-04-01T00:29:21;10.40;99.90
18950;DHT22;9608;49.288;8.130;2023-04-01T00:31:49;10.30;99.90
18950;DHT22;9608;49.288;8.130;2023-04-01T00:34:16;10.20;99.90
18950;DHT22;9608;49.288;8.130;2023-04-01T00:36:43;10.20;99.90
18950;DHT22;9608;49.288;8.130;2023-04-01T00:39:09;10.20;99.90
18950;DHT22;9608;49.288;8.130;2023-04-01T00:41:36;10.20;99.90
18950;DHT22;9608;49.288;8.130;2023-04-01T00:44:18;10.20;99.90
18950;DHT22;9608;49.288;8.130;2023-04-01T00:46:45;10.20;99.90
18950;DHT22;9608;49.288;8.130;2023-04-01T00:49:13;10.20;99.90
18950;DHT22;9608;49.288;8.130;2023-04-01T00:51:41;10.20;99.90
18950;DHT22;9608;49.288;8.130;2023-04-01T00:54:08;10.20;99.90
18950;DHT22;9608;49.288;8.130;2023-04-01T00:56:37;10.20;99.90
18950;DHT22;9608;49.288;8.130;2023-04-01T00:59:10;10.20;99.90
18950;DHT22;9608;49.288;8.130;2023-04-01T01:01:38;10.20;99.90
18950;DHT22;9608;49.288;8.130;2023-04-01T01:04:05;10.20;99.90
18950;DHT22;9608;49.288;8.130;2023-04-01T01:06:43;10.20;99.90
18950;DHT22;9608;49.288;8.130;2023-04-01T01:09:25;10.30;99.90
18950;DHT22;9608;49.288;8.130;2023-04-01T01:12:00;10.30;99.90
18950;DHT22;9608;49.288;8.130;2023-04-01T01:14:36;10.20;99.90
18950;DHT22;9608;49.288;8.130;2023-04-01T01:17:12;10.30;99.90
18950;DHT22;9608;49.288;8.130;2023-04-01T01:20:15;10.30;99.90
18950;DHT22;9608;49.288;8.130;2023-04-01T01:22:55;10.30;99.90
18950;DHT22;9608;49.288;8.130;2023-04-01T01:25:33;10.30;99.90
18950;DHT22;9608;49.288;8.130;2023-04-01T01:28:21;10.30;99.90
18950;DHT22;9608;49.288;8.130;2023-04-01T01:31:00;10.30;99.90
18950;DHT22;9608;49.288;8.130;2023-04-01T01:33:54;10.30;99.90
18950;DHT22;9608;49.288;8.130;2023-04-01T01:36:26;10.30;99.90
18950;DHT22;9608;49.288;8.130;2023-04-01T01:38:54;10.30;99.90
18950;DHT22;9608;49.288;8.130;2023-04-01T01:41:23;10.30;99.90
18950;DHT22;9608;49.288;8.130;2023-04-01T01:43:54;10.30;99.90
18950;DHT22;9608;49.288;8.130;2023-04-01T01:46:24;10.30;99.90
18950;DHT22;9608;49.288;8.130;2023-04-01T01:48:53;10.30;99.90
18950;DHT22;9608;49.288;8.130;2023-04-01T01:51:21;10.30;99.90
18950;DHT22;9608;49.288;8.130;2023-04-01T01:53:50;10.30;99.90
18950;DHT22;9608;49.288;8.130;2023-04-01T01:56:18;10.30;99.90
18950;DHT22;9608;49.288;8.130;2023-04-01T01:58:51;10.10;99.90
18950;DHT22;9608;49.288;8.130;2023-04-01T02:01:21;10.10;99.90
18950;DHT22;9608;49.288;8.130;2023-04-01T02:03:50;10.00;99.90
18950;DHT22;9608;49.288;8.130;2023-04-01T02:06:19;10.00;99.90
18950;DHT22;9608;49.288;8.130;2023-04-01T02:08:51;10.00;99.90
18950;DHT22;9608;49.288;8.130;2023-04-01T02:11:22;10.00;99.90
18950;DHT22;9608;49.288;8.130;2023-04-01T02:13:53;9.90;99.90
18950;DHT22;9608;49.288;8.130;2023-04-01T02:16:25;9.80;99.90
18950;DHT22;9608;49.288;8.130;2023-04-01T02:18:53;9.70;99.90
18950;DHT22;9608;49.288;8.130;2023-04-01T02:21:24;9.70;99.90
18950;DHT22;9608;49.288;8.130;2023-04-01T02:23:54;9.60;99.90
18950;DHT22;9608;49.288;8.130;2023-04-01T02:26:23;9.60;99.90
18950;DHT22;9608;49.288;8.130;2023-04-01T02:28:52;9.60;99.90
18950;DHT22;9608;49.288;8.130;2023-04-01T02:31:20;9.60;99.90
18950;DHT22;9608;49.288;8.130;2023-04-01T02:33:48;9.50;99.90
18950;DHT22;9608;49.288;8.130;2023-04-01T02:36:16;9.60;99.90
18950;DHT22;9608;49.288;8.130;2023-04-01T02:38:44;9.60;99.90
18950;DHT22;9608;49.288;8.130;2023-04-01T02:41:13;9.50;99.90
18950;DHT22;9608;49.288;8.130;2023-04-01T02:43:39;9.50;99.90
18950;DHT22;9608;49.288;8.130;2023-04-01T02:46:06;9.50;99.90
18950;DHT22;9608;49.288;8.130;2023-04-01T02:48:33;9.50;99.90
18950;DHT22;9608;49.288;8.130;2023-04-01T02:51:00;9.40;99.90
18950;DHT22;9608;49.288;8.130;2023-04-01T02:53:27;9.40;99.90
18950;DHT22;9608;49.288;8.130;2023-04-01T02:55:53;9.40;99.90
18950;DHT22;9608;49.288;8.130;2023-04-01T02:58:22;9.40;99.90
18950;DHT22;9608;49.288;8.130;2023-04-01T03:00:49;9.40;99.90
18950;DHT22;9608;49.288;8.130;2023-04-01T03:03:15;9.30;99.90
18950;DHT22;9608;49.288;8.130;2023-04-01T03:05:42;9.20;99.90
18950;DHT22;9608;49.288;8.130;2023-04-01T03:08:09;9.20;99.90
18950;DHT22;9608;49.288;8.130;2023-04-01T03:10:37;9.30;99.90
18950;DHT22;9608;49.288;8.130;2023-04-01T03:13:04;9.30;99.90
18950;DHT22;9608;49.288;8.130;2023-04-01T03:15:32;9.40;99.90
18950;DHT22;9608;49.288;8.130;2023-04-01T03:17:59;9.30;99.90
18950;DHT22;9608;49.288;8.130;2023-04-01T03:20:26;9.30;99.90
18950;DHT22;9608;49.288;8.130;2023-04-01T03:22:53;9.40;99.90
18950;DHT22;9608;49.288;8.130;2023-04-01T03:25:20;9.40;99.90
18950;DHT22;9608;49.288;8.130;2023-04-01T03:27:46;9.30;99.90
18950;DHT22;9608;49.288;8.130;2023-04-01T03:30:13;9.40;99.90
18950;DHT22;9608;49.288;8.130;2023-04-01T03:32:41;9.30;99.90
18950;DHT22;9608;49.288;8.130;2023-04-01T03:35:08;9.30;99.90
18950;DHT22;9608;49.288;8.130;2023-04-01T03:37:35;9.30;99.90
18950;DHT22;9608;49.288;8.130;2023-04-01T03:40:03;9.30;99.90
18950;DHT22;9608;49.288;8.130;2023-04-01T03:42:30;9.30;99.90
18950;DHT22;9608;49.288;8.130;2023-04-01T03:44:57;9.40;99.90
18950;DHT22;9608;49.288;8.130;2023-04-01T03:47:24;9.40;99.90
18950;DHT22;9608;49.288;8.130;2023-04-01T03:49:52;9.50;99.90
18950;DHT22;9608;49.288;8.130;2023-04-01T03:52:19;9.50;99.90
18950;DHT22;9608;49.288;8.130;2023-04-01T03:54:46;9.50;99.90
18950;DHT22;9608;49.288;8.130;2023-04-01T03:57:13;9.40;99.90
18950;DHT22;9608;49.288;8.130;2023-04-01T03:59:39;9.40;99.90
18950;DHT22;9608;49.288;8.130;2023-04-01T04:02:06;9.40;99.90
18950;DHT22;9608;49.288;8.130;2023-04-01T04:04:33;9.50;99.90
18950;DHT22;9608;49.288;8.130;2023-04-01T04:07:02;9.40;99.90
18950;DHT22;9608;49.288;8.130;2023-04-01T04:09:30;9.40;99.90
18950;DHT22;9608;49.288;8.130;2023-04-01T04:11:56;9.50;99.90
18950;DHT22;9608;49.288;8.130;2023-04-01T04:14:23;9.40;99.90
18950;DHT22;9608;49.288;8.130;2023-04-01T04:16:50;9.40;99.90
18950;DHT22;9608;49.288;8.130;2023-04-01T04:19:17;9.50;99.90
18950;DHT22;9608;49.288;8.130;2023-04-01T04:21:43;9.50;99.90
18950;DHT22;9608;49.288;8.130;2023-04-01T04:24:11;9.50;99.90
18950;DHT22;9608;49.288;8.130;2023-04-01T04:26:38;9.50;99.90
18950;DHT22;9608;49.288;8.130;2023-04-01T04:29:05;9.40;99.90
18950;DHT22;9608;49.288;8.130;2023-04-01T04:31:31;9.50;99.90
18950;DHT22;9608;49.288;8.130;2023-04-01T04:33:59;9.50;99.90
18950;DHT22;9608;49.288;8.130;2023-04-01T04:36:26;9.60;99.90
18950;DHT22;9608;49.288;8.130;2023-04-01T04:38:53;9.70;99.90
18950;DHT22;9608;49.288;8.130;2023-04-01T04:41:21;9.60;99.90
18950;DHT22;9608;49.288;8.130;2023-04-01T04:43:50;9.60;99.90
18950;DHT22;9608;49.288;8.130;2023-04-01T04:46:17;9.50;99.90
18950;DHT22;9608;49.288;8.130;2023-04-01T04:48:44;9.50;99.90
18950;DHT22;9608;49.288;8.130;2023-04-01T04:51:13;9.50;99.90
18950;DHT22;9608;49.288;8.130;2023-04-01T04:53:40;9.50;99.90
18950;DHT22;9608;49.288;8.130;2023-04-01T04:56:07;9.40;99.90
18950;DHT22;9608;49.288;8.130;2023-04-01T04:58:35;9.40;99.90
18950;DHT22;9608;49.288;8.130;2023-04-01T05:01:06;9.40;99.90
18950;DHT22;9608;49.288;8.130;2023-04-01T05:03:33;9.40;99.90
18950;DHT22;9608;49.288;8.130;2023-04-01T05:06:00;9.30;99.90
18950;DHT22;9608;49.288;8.130;2023-04-01T05:08:26;9.30;99.90
18950;DHT22;9608;49.288;8.130;2023-04-01T05:10:53;9.30;99.90
18950;DHT22;9608;49.288;8.130;2023-04-01T05:13:20;9.20;99.90
18950;DHT22;9608;49.288;8.130;2023-04-01T05:15:48;9.20;99.90
18950;DHT22;9608;49.288;8.130;2023-04-01T05:18:15;9.10;99.90
18950;DHT22;9608;49.288;8.130;2023-04-01T05:20:46;9.10;99.90
18950;DHT22;9608;49.288;8.130;2023-04-01T05:23:12;9.10;99.90
18950;DHT22;9608;49.288;8.130;2023-04-01T05:25:39;9.10;99.90
18950;DHT22;9608;49.288;8.130;2023-04-01T05:28:06;9.20;99.90
18950;DHT22;9608;49.288;8.130;2023-04-01T05:30:33;9.10;99.90
18950;DHT22;9608;49.288;8.130;2023-04-01T05:33:01;9.10;99.90
18950;DHT22;9608;49.288;8.130;2023-04-01T05:35:28;9.10;99.90
18950;DHT22;9608;49.288;8.130;2023-04-01T05:37:54;9.00;99.90
18950;DHT22;9608;49.288;8.130;2023-04-01T05:40:21;9.00;99.90
18950;DHT22;9608;49.288;8.130;2023-04-01T05:42:48;9.00;99.90
18950;DHT22;9608;49.288;8.130;2023-04-01T05:45:15;9.00;99.90
18950;DHT22;9608;49.288;8.130;2023-04-01T05:47:41;9.00;99.90
18950;DHT22;9608;49.288;8.130;2023-04-01T05:50:10;9.00;99.90
18950;DHT22;9608;49.288;8.130;2023-04-01T05:52:37;9.00;99.90
18950;DHT22;9608;49.288;8.130;2023-04-01T05:55:05;9.00;99.90
18950;DHT22;9608;49.288;8.130;2023-04-01T05:57:31;9.10;99.90
18950;DHT22;9608;49.288;8.130;2023-04-01T05:59:58;9.10;99.90
18950;DHT22;9608;49.288;8.130;2023-04-01T06:02:25;9.10;99.90
18950;DHT22;9608;49.288;8.130;2023-04-01T06:05:03;9.10;99.90
18950;DHT22;9608;49.288;8.130;2023-04-01T06:07:39;9.10;99.90
18950;DHT22;9608;49.288;8.130;2023-04-01T06:10:12;9.00;99.90
18950;DHT22;9608;49.288;8.130;2023-04-01T06:12:50;9.00;99.90
18950;DHT22;9608;49.288;8.130;2023-04-01T06:15:25;9.00;99.90
18950;DHT22;9608;49.288;8.130;2023-04-01T06:18:03;8.90;99.90
18950;DHT22;9608;49.288;8.130;2023-04-01T06:20:40;8.90;99.90
18950;DHT22;9608;49.288;8.130;2023-04-01T06:23:27;8.90;99.90
18950;DHT22;9608;49.288;8.130;2023-04-01T06:26:12;8.90;99.90
18950;DHT22;9608;49.288;8.130;2023-04-01T06:29:01;9.00;99.90
18950;DHT22;9608;49.288;8.130;2023-04-01T06:31:43;9.00;99.90
18950;DHT22;9608;49.288;8.130;2023-04-01T06:34:25;8.90;99.90
18950;DHT22;9608;49.288;8.130;2023-04-01T06:37:03;9.00;99.90
18950;DHT22;9608;49.288;8.130;2023-04-01T06:40:01;9.00;99.90
18950;DHT22;9608;49.288;8.130;2023-04-01T06:42:48;9.00;99.90
18950;DHT22;9608;49.288;8.130;2023-04-01T06:45:27;9.10;99.90
18950;DHT22;9608;49.288;8.130;2023-04-01T06:48:06;9.10;99.90
18950;DHT22;9608;49.288;8.130;2023-04-01T06:50:43;9.10;99.90
18950;DHT22;9608;49.288;8.130;2023-04-01T06:53:16;9.10;99.90
18950;DHT22;9608;49.288;8.130;2023-04-01T06:55:47;9.10;99.90
18950;DHT22;9608;49.288;8.130;2023-04-01T06:58:20;9.10;99.90
18950;DHT22;9608;49.288;8.130;2023-04-01T07:00:50;9.10;99.90
18950;DHT22;9608;49.288;8.130;2023-04-01T07:03:21;9.20;99.90
18950;DHT22;9608;49.288;8.130;2023-04-01T07:05:48;9.20;99.90
18950;DHT22;9608;49.288;8.130;2023-04-01T07:08:18;9.20;99.90
18950;DHT22;9608;49.288;8.130;2023-04-01T07:10:50;9.20;99.90
18950;DHT22;9608;49.288;8.130;2023-04-01T07:13:21;9.20;99.90
18950;DHT22;9608;49.288;8.130;2023-04-01T07:15:57;9.20;99.90
18950;DHT22;9608;49.288;8.130;2023-04-01T07:18:30;9.10;99.90
18950;DHT22;9608;49.288;8.130;2023-04-01T07:20:57;9.20;99.90
18950;DHT22;9608;49.288;8.130;2023-04-01T07:23:28;9.20;99.90
18950;DHT22;9608;49.288;8.130;2023-04-01T07:26:00;9.20;99.90
18950;DHT22;9608;49.288;8.130;2023-04-01T07:28:30;9.30;99.90
18950;DHT22;9608;49.288;8.130;2023-04-01T07:31:05;9.30;99.90
18950;DHT22;9608;49.288;8.130;2023-04-01T07:33:37;9.40;99.90
18950;DHT22;9608;49.288;8.130;2023-04-01T07:36:10;9.40;99.90
18950;DHT22;9608;49.288;8.130;2023-04-01T07:38:47;9.40;99.90
18950;DHT22;9608;49.288;8.130;2023-04-01T07:41:23;9.40;99.90
18950;DHT22;9608;49.288;8.130;2023-04-01T07:44:04;9.50;99.90
18950;DHT22;9608;49.288;8.130;2023-04-01T07:46:46;9.60;99.90
18950;DHT22;9608;49.288;8.130;2023-04-01T07:49:22;9.60;99.90
18950;DHT22;9608;49.288;8.130;2023-04-01T07:51:56;9.80;99.90
18950;DHT22;9608;49.288;8.130;2023-04-01T07:54:29;9.80;99.90
18950;DHT22;9608;49.288;8.130;2023-04-01T07:57:03;9.80;99.90
18950;DHT22;9608;49.288;8.130;2023-04-01T07:59:39;9.80;99.90
18950;DHT22;9608;49.288;8.130;2023-04-01T08:02:15;9.80;99.90
18950;DHT22;9608;49.288;8.130;2023-04-01T08:04:55;9.90;99.90
18950;DHT22;9608;49.288;8.130;2023-04-01T08:07:27;9.90;99.90
18950;DHT22;9608;49.288;8.130;2023-04-01T08:10:00;10.00;99.90
18950;DHT22;9608;49.288;8.130;2023-04-01T08:12:41;10.00;99.90
18950;DHT22;9608;49.288;8.130;2023-04-01T08:15:14;9.90;99.90
18950;DHT22;9608;49.288;8.130;2023-04-01T08:17:46;9.90;99.90
18950;DHT22;9608;49.288;8.130;2023-04-01T08:20:25;10.00;99.90
18950;DHT22;9608;49.288;8.130;2023-04-01T08:22:58;9.80;99.90
18950;DHT22;9608;49.288;8.130;2023-04-01T08:25:28;9.80;99.90
18950;DHT22;9608;49.288;8.130;2023-04-01T08:28:01;9.90;99.90
18950;DHT22;9608;49.288;8.130;2023-04-01T08:30:38;9.90;99.90
18950;DHT22;9608;49.288;8.130;2023-04-01T08:33:12;9.90;99.90
18950;DHT22;9608;49.288;8.130;2023-04-01T08:35:45;9.90;99.90
18950;DHT22;9608;49.288;8.130;2023-04-01T08:38:17;9.90;99.90
18950;DHT22;9608;49.288;8.130;2023-04-01T08:40:56;9.90;99.90
18950;DHT22;9608;49.288;8.130;2023-04-01T08:43:42;10.00;99.90
18950;DHT22;9608;49.288;8.130;2023-04-01T08:49:14;10.10;99.90
18950;DHT22;9608;49.288;8.130;2023-04-01T08:52:11;10.30;99.90
18950;DHT22;9608;49.288;8.130;2023-04-01T08:55:14;10.30;99.90
18950;DHT22;9608;49.288;8.130;2023-04-01T08:58:00;10.30;99.90
18950;DHT22;9608;49.288;8.130;2023-04-01T09:00:32;10.40;99.90
18950;DHT22;9608;49.288;8.130;2023-04-01T09:03:20;10.30;99.90
18950;DHT22;9608;49.288;8.130;2023-04-01T09:06:21;10.40;99.90
18950;DHT22;9608;49.288;8.130;2023-04-01T09:09:02;10.60;99.90
18950;DHT22;9608;49.288;8.130;2023-04-01T09:11:43;10.70;99.90
18950;DHT22;9608;49.288;8.130;2023-04-01T09:14:47;10.70;99.90
18950;DHT22;9608;49.288;8.130;2023-04-01T09:17:30;10.90;99.90
18950;DHT22;9608;49.288;8.130;2023-04-01T09:20:25;11.00;99.90
18950;DHT22;9608;49.288;8.130;2023-04-01T09:23:10;11.00;99.90
18950;DHT22;9608;49.288;8.130;2023-04-01T09:25:51;11.00;99.90
18950;DHT22;9608;49.288;8.130;2023-04-01T09:28:28;11.10;99.90
18950;DHT22;9608;49.288;8.130;2023-04-01T09:31:10;11.10;99.90
18950;DHT22;9608;49.288;8.130;2023-04-01T09:33:59;11.00;99.90
18950;DHT22;9608;49.288;8.130;2023-04-01T09:36:43;11.00;99.90
18950;DHT22;9608;49.288;8.130;2023-04-01T09:39:35;11.10;99.90
18950;DHT22;9608;49.288;8.130;2023-04-01T09:42:29;11.20;99.90
18950;DHT22;9608;49.288;8.130;2023-04-01T09:44:59;11.30;99.90
18950;DHT22;9608;49.288;8.130;2023-04-01T09:47:48;11.30;99.90
18950;DHT22;9608;49.288;8.130;2023-04-01T09:50:33;11.40;99.90
18950;DHT22;9608;49.288;8.130;2023-04-01T09:53:13;11.50;99.90
18950;DHT22;9608;49.288;8.130;2023-04-01T09:56:19;11.60;99.90
18950;DHT22;9608;49.288;8.130;2023-04-01T09:59:24;11.40;99.90
18950;DHT22;9608;49.288;8.130;2023-04-01T10:05:31;11.10;99.90
18950;DHT22;9608;49.288;8.130;2023-04-01T10:08:33;11.00;99.90
18950;DHT22;9608;49.288;8.130;2023-04-01T10:14:25;11.10;99.90
18950;DHT22;9608;49.288;8.130;2023-04-01T10:17:22;11.00;99.90
18950;DHT22;9608;49.288;8.130;2023-04-01T10:20:26;11.00;99.90
18950;DHT22;9608;49.288;8.130;2023-04-01T10:23:18;11.20;99.90
18950;DHT22;9608;49.288;8.130;2023-04-01T10:32:12;11.20;99.90
18950;DHT22;9608;49.288;8.130;2023-04-01T10:35:10;11.30;99.90
18950;DHT22;9608;49.288;8.130;2023-04-01T10:38:13;11.40;99.90
18950;DHT22;9608;49.288;8.130;2023-04-01T10:41:18;11.30;99.90
18950;DHT22;9608;49.288;8.130;2023-04-01T10:44:21;11.30;99.90
18950;DHT22;9608;49.288;8.130;2023-04-01T10:47:16;11.20;99.90
18950;DHT22;9608;49.288;8.130;2023-04-01T10:52:59;11.20;99.90
18950;DHT22;9608;49.288;8.130;2023-04-01T10:55:59;11.20;99.90
18950;DHT22;9608;49.288;8.130;2023-04-01T10:58:59;11.20;99.90
18950;DHT22;9608;49.288;8.130;2023-04-01T11:05:05;11.40;99.90
18950;DHT22;9608;49.288;8.130;2023-04-01T11:08:04;11.50;99.90
18950;DHT22;9608;49.288;8.130;2023-04-01T11:11:10;11.70;99.90
18950;DHT22;9608;49.288;8.130;2023-04-01T11:17:27;11.70;99.90
18950;DHT22;9608;49.288;8.130;2023-04-01T11:20:18;11.80;99.90
18950;DHT22;9608;49.288;8.130;2023-04-01T11:23:15;11.80;99.90
18950;DHT22;9608;49.288;8.130;2023-04-01T11:25:56;11.80;99.90
18950;DHT22;9608;49.288;8.130;2023-04-01T11:31:52;12.10;99.90
18950;DHT22;9608;49.288;8.130;2023-04-01T11:34:37;12.30;99.90
18950;DHT22;9608;49.288;8.130;2023-04-01T11:37:16;12.40;99.90
18950;DHT22;9608;49.288;8.130;2023-04-01T11:39:57;12.60;99.90
18950;DHT22;9608;49.288;8.130;2023-04-01T11:42:30;12.60;99.90
18950;DHT22;9608;49.288;8.130;2023-04-01T11:45:12;12.70;99.90
18950;DHT22;9608;49.288;8.130;2023-04-01T11:48:08;12.80;99.90
18950;DHT22;9608;49.288;8.130;2023-04-01T11:50:49;13.00;99.90
18950;DHT22;9608;49.288;8.130;2023-04-01T11:53:30;12.90;99.90
18950;DHT22;9608;49.288;8.130;2023-04-01T11:56:09;12.80;99.90
18950;DHT22;9608;49.288;8.130;2023-04-01T12:01:47;12.40;99.90
18950;DHT22;9608;49.288;8.130;2023-04-01T12:07:34;12.20;99.90
18950;DHT22;9608;49.288;8.130;2023-04-01T12:10:15;12.40;99.90
18950;DHT22;9608;49.288;8.130;2023-04-01T12:12:51;12.20;99.90
18950;DHT22;9608;49.288;8.130;2023-04-01T12:15:29;12.10;99.90
18950;DHT22;9608;49.288;8.130;2023-04-01T12:18:03;11.90;99.90
18950;DHT22;9608;49.288;8.130;2023-04-01T12:20:45;12.00;99.90
18950;DHT22;9608;49.288;8.130;2023-04-01T12:23:38;12.00;99.90
18950;DHT22;9608;49.288;8.130;2023-04-01T12:26:23;12.20;99.90
18950;DHT22;9608;49.288;8.130;2023-04-01T12:29:08;12.50;99.90
18950;DHT22;9608;49.288;8.130;2023-04-01T12:31:47;12.70;99.90
18950;DHT22;9608;49.288;8.130;2023-04-01T12:37:23;12.70;99.90
18950;DHT22;9608;49.288;8.130;2023-04-01T12:40:16;12.70;99.90
18950;DHT22;9608;49.288;8.130;2023-04-01T12:42:54;13.00;99.90
18950;DHT22;9608;49.288;8.130;2023-04-01T12:45:31;12.80;99.90
18950;DHT22;9608;49.288;8.130;2023-04-01T12:48:24;12.60;99.90
18950;DHT22;9608;49.288;8.130;2023-04-01T12:51:29;12.90;99.90
18950;DHT22;9608;49.288;8.130;2023-04-01T12:57:08;12.80;99.90
18950;DHT22;9608;49.288;8.130;2023-04-01T12:59:45;13.00;99.90
18950;DHT22;9608;49.288;8.130;2023-04-01T13:02:26;12.90;99.90
18950;DHT22;9608;49.288;8.130;2023-04-01T13:05:19;12.40;99.90
18950;DHT22;9608;49.288;8.130;2023-04-01T13:08:03;12.40;99.90
18950;DHT22;9608;49.288;8.130;2023-04-01T13:11:05;12.40;99.90
18950;DHT22;9608;49.288;8.130;2023-04-01T13:13:49;12.10;99.90
18950;DHT22;9608;49.288;8.130;2023-04-01T13:16:26;12.10;99.90
18950;DHT22;9608;49.288;8.130;2023-04-01T13:18:58;12.10;99.90
18950;DHT22;9608;49.288;8.130;2023-04-01T13:21:37;12.10;99.90
18950;DHT22;9608;49.288;8.130;2023-04-01T13:24:13;12.30;99.90
18950;DHT22;9608;49.288;8.130;2023-04-01T13:26:53;12.50;99.90
18950;DHT22;9608;49.288;8.130;2023-04-01T13:29:27;12.70;99.90
18950;DHT22;9608;49.288;8.130;2023-04-01T13:32:06;12.90;99.90
18950;DHT22;9608;49.288;8.130;2023-04-01T13:34:48;13.00;99.90
18950;DHT22;9608;49.288;8.130;2023-04-01T13:37:28;12.90;99.90
18950;DHT22;9608;49.288;8.130;2023-04-01T13:40:04;13.20;99.90
18950;DHT22;9608;49.288;8.130;2023-04-01T13:42:42;13.40;99.90
18950;DHT22;9608;49.288;8.130;2023-04-01T13:45:16;13.40;99.90
18950;DHT22;9608;49.288;8.130;2023-04-01T13:57:16;12.80;99.90
18950;DHT22;9608;49.288;8.130;2023-04-01T13:59:59;12.80;99.90
18950;DHT22;9608;49.288;8.130;2023-04-01T14:02:47;12.80;99.90
18950;DHT22;9608;49.288;8.130;2023-04-01T14:05:29;12.90;99.90
18950;DHT22;9608;49.288;8.130;2023-04-01T14:08:07;12.90;99.90
18950;DHT22;9608;49.288;8.130;2023-04-01T14:10:43;12.80;99.90
18950;DHT22;9608;49.288;8.130;2023-04-01T14:13:17;13.00;99.90
18950;DHT22;9608;49.288;8.130;2023-04-01T14:16:00;13.30;99.90
18950;DHT22;9608;49.288;8.130;2023-04-01T14:18:47;13.40;99.90
18950;DHT22;9608;49.288;8.130;2023-04-01T14:21:26;13.00;99.90
18950;DHT22;9608;49.288;8.130;2023-04-01T14:27:00;12.80;99.90
18950;DHT22;9608;49.288;8.130;2023-04-01T14:29:38;12.80;99.90
18950;DHT22;9608;49.288;8.130;2023-04-01T14:32:12;13.00;99.90
18950;DHT22;9608;49.288;8.130;2023-04-01T14:34:54;13.00;99.90
18950;DHT22;9608;49.288;8.130;2023-04-01T14:40:27;13.10;99.90
18950;DHT22;9608;49.288;8.130;2023-04-01T14:43:14;13.30;99.90
18950;DHT22;9608;49.288;8.130;2023-04-01T14:46:08;13.30;99.90
18950;DHT22;9608;49.288;8.130;2023-04-01T14:48:50;13.00;99.90
18950;DHT22;9608;49.288;8.130;2023-04-01T14:51:23;12.90;99.90
18950;DHT22;9608;49.288;8.130;2023-04-01T14:54:00;12.70;99.90
18950;DHT22;9608;49.288;8.130;2023-04-01T14:56:39;12.80;99.90
18950;DHT22;9608;49.288;8.130;2023-04-01T14:59:14;12.70;99.90
18950;DHT22;9608;49.288;8.130;2023-04-01T15:01:47;12.40;99.90
18950;DHT22;9608;49.288;8.130;2023-04-01T15:07:42;12.00;99.90
18950;DHT22;9608;49.288;8.130;2023-04-01T15:10:24;12.00;99.90
18950;DHT22;9608;49.288;8.130;2023-04-01T15:13:05;12.10;99.90
18950;DHT22;9608;49.288;8.130;2023-04-01T15:15:51;12.20;99.90
18950;DHT22;9608;49.288;8.130;2023-04-01T15:18:32;12.40;99.90
18950;DHT22;9608;49.288;8.130;2023-04-01T15:21:16;12.50;99.90
18950;DHT22;9608;49.288;8.130;2023-04-01T15:23:53;12.30;99.90
18950;DHT22;9608;49.288;8.130;2023-04-01T15:26:35;12.40;99.90
18950;DHT22;9608;49.288;8.130;2023-04-01T15:32:08;12.50;99.90
18950;DHT22;9608;49.288;8.130;2023-04-01T15:34:44;12.80;99.90
18950;DHT22;9608;49.288;8.130;2023-04-01T15:37:16;13.00;99.90
18950;DHT22;9608;49.288;8.130;2023-04-01T15:39:54;12.90;99.90
18950;DHT22;9608;49.288;8.130;2023-04-01T15:42:35;13.00;99.90
18950;DHT22;9608;49.288;8.130;2023-04-01T15:45:18;13.10;99.90
18950;DHT22;9608;49.288;8.130;2023-04-01T15:47:58;12.70;99.90
18950;DHT22;9608;49.288;8.130;2023-04-01T15:53:47;12.50;99.90
18950;DHT22;9608;49.288;8.130;2023-04-01T15:56:36;12.70;99.90
18950;DHT22;9608;49.288;8.130;2023-04-01T15:59:20;12.80;99.90
18950;DHT22;9608;49.288;8.130;2023-04-01T16:01:57;12.70;99.90
18950;DHT22;9608;49.288;8.130;2023-04-01T16:04:46;12.90;99.90
18950;DHT22;9608;49.288;8.130;2023-04-01T16:07:26;12.70;99.90
18950;DHT22;9608;49.288;8.130;2023-04-01T16:10:06;12.60;99.90
18950;DHT22;9608;49.288;8.130;2023-04-01T16:12:51;12.50;99.90
18950;DHT22;9608;49.288;8.130;2023-04-01T16:15:24;12.60;99.90
18950;DHT22;9608;49.288;8.130;2023-04-01T16:18:04;12.40;99.90
18950;DHT22;9608;49.288;8.130;2023-04-01T16:20:43;12.30;99.90
18950;DHT22;9608;49.288;8.130;2023-04-01T16:23:14;12.00;99.90
18950;DHT22;9608;49.288;8.130;2023-04-01T16:25:49;12.10;99.90
18950;DHT22;9608;49.288;8.130;2023-04-01T16:28:22;12.00;99.90
18950;DHT22;9608;49.288;8.130;2023-04-01T16:30:58;12.10;99.90
18950;DHT22;9608;49.288;8.130;2023-04-01T16:33:34;12.10;99.90
18950;DHT22;9608;49.288;8.130;2023-04-01T16:36:10;12.10;99.90
18950;DHT22;9608;49.288;8.130;2023-04-01T16:38:42;12.20;99.90
18950;DHT22;9608;49.288;8.130;2023-04-01T16:41:16;12.30;99.90
18950;DHT22;9608;49.288;8.130;2023-04-01T16:43:48;12.30;99.90
18950;DHT22;9608;49.288;8.130;2023-04-01T16:46:38;12.30;99.90
18950;DHT22;9608;49.288;8.130;2023-04-01T16:49:29;12.20;99.90
18950;DHT22;9608;49.288;8.130;2023-04-01T16:52:12;12.10;99.90
18950;DHT22;9608;49.288;8.130;2023-04-01T16:54:43;12.00;99.90
18950;DHT22;9608;49.288;8.130;2023-04-01T16:57:18;11.80;99.90
18950;DHT22;9608;49.288;8.130;2023-04-01T16:59:54;11.90;99.90
18950;DHT22;9608;49.288;8.130;2023-04-01T17:02:26;11.90;99.90
18950;DHT22;9608;49.288;8.130;2023-04-01T17:04:57;11.80;99.90
18950;DHT22;9608;49.288;8.130;2023-04-01T17:07:31;11.90;99.90
18950;DHT22;9608;49.288;8.130;2023-04-01T17:13:19;11.90;99.90
18950;DHT22;9608;49.288;8.130;2023-04-01T17:15:56;11.80;99.90
18950;DHT22;9608;49.288;8.130;2023-04-01T17:18:28;11.80;99.90
18950;DHT22;9608;49.288;8.130;2023-04-01T17:21:05;11.70;99.90
18950;DHT22;9608;49.288;8.130;2023-04-01T17:23:37;11.80;99.90
18950;DHT22;9608;49.288;8.130;2023-04-01T17:26:12;11.80;99.90
18950;DHT22;9608;49.288;8.130;2023-04-01T17:28:48;11.80;99.90
18950;DHT22;9608;49.288;8.130;2023-04-01T17:31:37;11.80;99.90
18950;DHT22;9608;49.288;8.130;2023-04-01T17:34:31;11.70;99.90
18950;DHT22;9608;49.288;8.130;2023-04-01T17:37:28;11.40;99.90
18950;DHT22;9608;49.288;8.130;2023-04-01T17:40:12;11.20;99.90
18950;DHT22;9608;49.288;8.130;2023-04-01T17:42:45;11.20;99.90
18950;DHT22;9608;49.288;8.130;2023-04-01T17:45:21;11.30;99.90
18950;DHT22;9608;49.288;8.130;2023-04-01T17:47:58;11.20;99.90
18950;DHT22;9608;49.288;8.130;2023-04-01T17:50:36;11.10;99.90
18950;DHT22;9608;49.288;8.130;2023-04-01T17:53:18;10.90;99.90
18950;DHT22;9608;49.288;8.130;2023-04-01T17:56:00;10.80;99.90
18950;DHT22;9608;49.288;8.130;2023-04-01T17:58:38;10.70;99.90
18950;DHT22;9608;49.288;8.130;2023-04-01T18:01:17;10.60;99.90